Ely, Nevada Weather observations

Data are for observation ending at time listed.
 Day   Time    Ave.   Ave.  Ave.  Vector   Max.   Stn.    Total    Solar   Ave.  
  of    of     Air    Rel.  Wind   Wind    Wind   Baro.  Precip.   Rad.    Soil  
Year   Day     Temp.  Hum.  Speed  Dir.    Gust   Pres.                    Temp. 
2014   (PST)    F      %     mph   deg.    mph     mb.     in.     W/m2     F   
------------------------------------------------------------------------------
 239    4:40   41.4    88   10.7   159     13.3   816.1    0.00       0    46.4
 239    4:50   40.2    89   10.1   158     13.0   816.2    0.00       1    46.4
 239    5:00   40.6    89   10.9   149     14.2   816.4    0.00       4    46.5
 239    5:10   41.4    88   11.4   147     15.1   816.3    0.00       7    46.6
 239    5:20   40.7    88   10.4   148     13.7   816.5    0.00       7    46.6
 239    5:30   40.4    89   11.0   154     14.5   816.5    0.00      19    46.6
 239    5:40   40.5    89   11.7   156     14.4   816.5    0.00      20    46.5
 239    5:50   41.1    89   11.2   157     14.6   816.5    0.00      29    46.4
 239    6:00   42.1    87   10.0   162     14.0   816.6    0.00      22    46.4
 239    6:10   42.9    86    9.4   145     13.7   816.7    0.00      93    46.5
 239    6:20   43.2    86    9.6   139     12.5   816.8    0.00     208    46.5
 239    6:30   44.1    84    8.5   144     11.5   817.0    0.00     267    47.8
 239    6:40   45.4    81    8.5   154     11.6   817.0    0.00     243    49.4
 239    6:50   46.7    80    6.3   163     10.0   817.0    0.00     252    50.6
 239    7:00   48.1    77    6.6   169      9.8   817.1    0.00     339    51.5
 239    7:10   48.6    76    8.2   163     12.0   817.2    0.00     376    51.2
 239    7:20   50.2    73    6.9   167     10.0   817.2    0.00     411    51.1
 239    7:30   51.9    70    7.4   166     10.0   817.2    0.00     446    51.6
 239    7:40   53.2    66    7.7   160     10.2   817.1    0.00     481    52.6
 239    7:50   54.4    64    8.3   142     10.3   817.1    0.00     514    53.9
 239    8:00   55.3    62    7.1   140     10.2   817.1    0.00     549    55.1
 239    8:10   56.2    59    6.6   145      9.3   817.0    0.00     581    56.3
 239    8:20   57.8    56    4.1   159      6.5   817.1    0.00     614    57.7
 239    8:30   59.4    52    2.9   132      5.3   817.1    0.00     644    59.4
 239    8:40   61.1    50    1.4   161      4.0   817.2    0.00     674    61.1
 239    8:50   62.5    47    1.3    97      3.7   817.2    0.00     702    62.8
 239    9:00   64.0    44    0.7   172      3.4   817.2    0.00     730    64.4
 239    9:10   64.0    41    1.6    22      3.8   817.2    0.00     757    66.0
 239    9:20   65.4    37    0.5    16      2.4   817.2    0.00     785    67.5
 239    9:30   65.6    37    0.7   292      2.0   817.1    0.00     810    69.2
 239    9:40   66.0    35    2.3   124      4.0   817.1    0.00     831    70.7
 239    9:50   66.3    34    2.6    28      6.7   817.1    0.00     853    72.1
 239   10:00   67.0    34    4.1   349      8.8   817.0    0.00     870    73.4
 239   10:10   67.2    34    1.3   336      4.5   817.0    0.00     888    74.6
 239   10:20   68.2    33    2.3   355      7.5   816.9    0.00     905    75.9
 239   10:30   67.6    34    4.9   342      8.9   816.8    0.00     919    76.9
 239   10:40   68.5    33    3.4    12      9.3   816.7    0.00     933    77.8
 239   10:50   67.9    34    4.6    12      8.6   816.7    0.00     946    78.4
 239   11:00   68.9    32    2.6   322      7.8   816.6    0.00     963    79.1
 239   11:10   69.5    32    5.5    22     10.7   816.6    0.00     970    80.0
 239   11:20   69.7    32    5.2   336     13.1   816.6    0.00     978    80.7
 239   11:30   69.7    31    5.7     5     12.3   816.5    0.00     989    81.2
 239   11:40   69.9    31    5.7    22      9.7   816.4    0.00     857    81.7
 239   11:50   70.7    30    7.5     7     13.7   816.3    0.00    1001    81.6
 239   12:00   71.1    29    6.4    26     12.7   816.3    0.00     967    81.8
 239   12:10   70.8    29    7.0   314     13.0   816.3    0.00     933    81.8
 239   12:20   71.1    30    6.1   323     11.7   816.3    0.00     968    82.0
 239   12:30   71.0    30    7.8   339     15.4   816.3    0.00     960    81.5
 239   12:40   71.0    29    4.0     6      8.9   816.2    0.00     962    80.4
 239   12:50   72.4    28    3.4   286     11.3   816.2    0.00     961    80.0
 239   13:00   72.6    28    6.3   231     10.2   816.1    0.00     944    80.6
 239   13:10   72.5    28    5.8   282     12.9   816.0    0.00     910    81.5
 239   13:20   72.1    28    4.9   325     10.5   816.0    0.00     889    82.1
 239   13:30   72.6    27    2.8     5      8.6   815.9    0.00     907    82.4
 239   13:40   73.5    26    5.2    61      9.8   815.7    0.00     808    82.7
 239   13:50   73.0    27    6.2    24     13.0   815.7    0.00     642    82.6
 239   14:00   72.8    27   10.3     1     16.4   815.6    0.00     736    81.8
 239   14:10   73.7    26    7.2    23     11.8   815.6    0.00     835    81.3
 239   14:20   74.2    26    5.8    12     13.2   815.5    0.00     806    81.1
 239   14:30   73.7    26    8.2    15     15.0   815.5    0.00     767    81.1
 239   14:40   73.8    25    8.7     1     17.1   815.5    0.00     735    80.6
 239   14:50   73.6    25    8.1     6     13.1   815.5    0.00     643    80.2
 239   15:00   74.2    24    4.9    24      8.7   815.4    0.00     671    79.8
 239   15:10   74.8    24    6.9   342     13.4   815.4    0.00     643    79.5
 239   15:20   74.4    24    4.8   323     15.8   815.3    0.00     612    79.4
 239   15:30   74.3    24    9.1   353     14.5   815.3    0.00     577    79.2
 239   15:40   74.0    24    7.9   360     13.6   815.3    0.00     522    78.7
 239   15:50   74.3    24    7.6   344     13.5   815.2    0.00     486    78.1
 239   16:00   74.8    23    4.2     6      8.8   815.2    0.00     468    77.7
 239   16:10   74.8    23    7.1   346     13.4   815.3    0.00     438    77.2
 239   16:20   74.4    23    8.9   354     13.4   815.3    0.00     384    76.7
 239   16:30   74.1    23    7.1   348     11.5   815.3    0.00     357    76.1
 239   16:40   74.2    23    7.4   345     12.3   815.2    0.00     312    75.6
 239   16:50   74.3    23    6.8     6     11.5   815.3    0.00     275    75.1
 239   17:00   73.9    23    7.5   358     12.1   815.2    0.00     240    74.7
 239   17:10   74.0    23    7.4   354     12.9   815.2    0.00     203    74.3
 239   17:20   73.9    23    6.8   359     10.3   815.2    0.00     171    73.9
 239   17:30   73.8    23    5.6    21      7.7   815.2    0.00     138    73.5
 239   17:40   73.4    24    6.5     7      9.6   815.2    0.00     103    73.1
 239   17:50   73.0    24    5.4    13      8.5   815.3    0.00      69    72.8
 239   18:00   72.8    25    3.8     3      5.6   815.3    0.00      39    72.3
 239   18:10   72.6    26    2.8   353      3.9   815.4    0.00      14    71.8
 239   18:20   71.4    26    2.6   356      3.7   815.4    0.00       7    71.3
 239   18:30   70.6    28    2.9   357      4.4   815.5    0.00       6    70.6
 239   18:40   69.6    31    2.5   332      3.7   815.6    0.00       1    70.1
 239   18:50   68.7    34    1.6   326      3.0   815.6    0.00       0    69.5
 239   19:00   66.7    36    0.8     2      2.4   815.8    0.00       0    68.9
 239   19:10   65.8    36    0.0     0      0.0   815.8    0.00       0    68.4
 239   19:20   64.8    40    2.4   151      4.5   815.9    0.00       0    67.9
 239   19:30   61.9    44    4.3   154      5.8   816.0    0.00       0    67.4
 239   19:40   59.1    48    6.7   153     10.0   816.1    0.00       0    66.8
 239   19:50   57.8    50    8.2   148      9.9   816.1    0.00       0    66.3
 239   20:00   57.6    50    7.7   146     10.0   816.2    0.00       0    65.7
 239   20:10   57.1    50    8.0   150      9.6   816.3    0.00       0    65.2
 239   20:20   56.6    51    8.0   151      9.7   816.4    0.00       0    64.7
 239   20:30   55.7    53    7.8   149      9.7   816.4    0.00       0    64.2
 239   20:40   55.5    54    7.0   144      8.8   816.5    0.00       0    63.8
 239   20:50   55.2    55    7.0   143      8.9   816.5    0.00       0    63.3
 239   21:00   54.9    56    7.8   136     10.1   816.5    0.00       0    62.9
 239   21:10   55.2    56    8.9   143     11.2   816.5    0.00       0    62.6
 239   21:20   55.1    55    7.6   155     11.0   816.6    0.00       0    62.3
 239   21:30   54.8    54    7.8   163     11.3   816.6    0.00       0    61.9
 239   21:40   54.6    55    6.3   174      9.3   816.6    0.00       0    61.6
 239   21:50   55.7    54    5.8   174      9.4   816.6    0.00       0    61.3
 239   22:00   54.0    60   10.1   154     13.4   816.6    0.00       0    61.1
 239   22:10   51.6    68   10.8   153     13.0   816.7    0.00       0    60.7
 239   22:20   51.5    71   12.4   152     14.5   816.6    0.00       0    60.3
 239   22:30   51.3    72   10.9   148     14.0   816.7    0.00       0    60.0
 239   22:40   51.4    71   11.1   150     13.2   816.6    0.00       0    59.7
 239   22:50   51.3    72   10.5   146     12.9   816.6    0.00       0    59.4
 239   23:00   51.0    72    9.7   148     12.6   816.7    0.00       0    59.1
 239   23:10   50.7    72    9.1   146     11.9   816.6    0.00       0    58.8
 239   23:20   50.8    71    9.0   147     11.4   816.6    0.00       0    58.5
 239   23:30   50.5    71   10.7   147     14.1   816.6    0.00       0    58.3
 239   23:40   50.1    72   10.0   150     12.4   816.7    0.00       0    58.0
 239   23:50   50.0    70    9.2   149     12.1   816.7    0.00       0    57.7
 240    0:00   50.1    70   10.3   152     12.6   816.7    0.00       0    57.5
 240    0:10   50.1    70   10.9   153     13.0   816.7    0.00       1    57.3
 240    0:20   49.7    72    8.3   148     11.9   816.7    0.00       0    57.1
 240    0:30   49.9    71    6.7   149      9.3   816.8    0.00       0    56.9
 240    0:40   49.5    72    7.4   160      9.9   816.8    0.00       1    56.7
 240    0:50   49.2    73    8.6   157     10.4   816.8    0.00       0    56.5
 240    1:00   48.9    74    9.5   154     11.3   816.8    0.00       0    56.2
 240    1:10   47.9    76    9.2   153     11.1   816.8    0.00       0    56.0
 240    1:20   47.7    77    9.5   149     11.5   816.7    0.00       1    55.8
 240    1:30   47.8    76    8.5   144     11.0   816.8    0.00       0    55.5
 240    1:40   48.1    75   10.9   141     13.4   816.8    0.00       0    55.3
 240    1:50   48.5    74   11.2   144     14.7   816.8    0.00       1    55.2
 240    2:00   47.8    76   11.0   146     13.9   816.8    0.00       1    55.1
 240    2:10   47.5    76   10.7   148     14.1   816.8    0.00       0    54.9
 240    2:20   47.4    77   11.2   140     14.1   816.8    0.00       0    54.7
 240    2:30   47.0    76    9.6   148     12.3   816.9    0.00       1    54.5
 240    2:40   47.4    74   10.4   146     14.8   816.8    0.00       1    54.4
 240    2:50   47.6    75   11.2   146     15.5   816.7    0.00       0    54.2
 240    3:00   47.3    75   10.2   147     12.9   816.7    0.00       0    54.1
 240    3:10   46.6    76   10.9   150     13.5   816.8    0.00       0    53.9
 240    3:20   46.3    76    9.0   150     11.7   816.8    0.00       0    53.7
 240    3:30   46.3    76    9.5   147     12.2   816.8    0.00       1    53.5
 240    3:40   46.0    76    9.7   147     12.3   816.8    0.00       0    53.4
 240    3:50   45.7    76    9.7   149     11.9   816.8    0.00       1    53.2
 240    4:00   45.3    77    8.9   148     11.6   816.8    0.00       1    53.0
 240    4:10   46.0    76   10.1   145     12.1   816.8    0.00       1    52.8
 240    4:20   46.4    74    8.9   148     12.7   816.9    0.00       1    52.7
 240    4:30   45.9    75    7.9   148     10.8   817.0    0.00       1    52.6

Return to Ely, Nevada graphs page.


Western Regional Climate Center,wrcc@dri.edu